Terminal Aerodrome Forecast
Issued by NWS

Home | Current Version | Previous Version | Text Only | Print | Product List | Glossary On
Versions: 1 2 3 4 5 6 7 8 9 10 11 12 13 14 15 16 17 18
629
FTUS43 KMQT 060317 AAA
TAFIWD
TAF AMD
KIWD 060317Z 0603/0624 23010G15KT P6SM BKN030
     FM060600 24010KT P6SM BKN018
     FM061300 24007KT P6SM OVC035
     FM062000 21008KT P6SM OVC110
      AMD LTD TO CLD VIS AND WIND=

USA.gov is the U.S. government's official web portal to all federal, state and local government web resources and services.